Terminal Aerodrome Forecast
Issued by NWS Caribou, ME

Home | Current Version | Previous Version | Text Only | Print | Product List | Glossary On
Versions: 1 2 3 4 5 6 7 8 9 10 11 12 13 14 15 16 17 18 19
161
FTUS41 KCAR 111120
TAFBGR
TAF
KBGR 111120Z 1112/1212 25004KT P6SM FEW050
     FM112000 VRB03KT P6SM SCT120 OVC200
     FM120100 VRB03KT P6SM BKN090 OVC150
     FM120630 00000KT 6SM -SN OVC035
     FM120800 00000KT 1 1/2SM -SN OVC020
     FM121000 09006KT 3/4SM -SN BR OVC008=

USA.gov is the U.S. government's official web portal to all federal, state and local government web resources and services.